createdAt,value
2023-06-29T00:00:01.978Z,4.57
2023-06-29T00:02:30.321Z,4.88
2023-06-29T00:04:57.626Z,4.72
2023-06-29T00:07:34.297Z,6.18
2023-06-29T00:10:04.093Z,5.80
2023-06-29T00:12:31.506Z,5.22
2023-06-29T00:14:58.699Z,4.10
2023-06-29T00:17:25.894Z,5.47
2023-06-29T00:19:55.631Z,3.42
2023-06-29T00:22:22.793Z,5.10
2023-06-29T00:24:56.796Z,4.45
2023-06-29T00:27:26.324Z,3.53
2023-06-29T00:32:20.538Z,4.15
2023-06-29T00:34:48.195Z,4.18
2023-06-29T00:37:15.336Z,4.60
2023-06-29T00:39:42.889Z,4.97
2023-06-29T00:42:10.193Z,4.40
2023-06-29T00:44:37.362Z,4.95
2023-06-29T00:47:04.978Z,5.00
2023-06-29T00:49:32.284Z,4.28
2023-06-29T00:51:59.447Z,7.43
2023-06-29T00:54:26.625Z,5.88
2023-06-29T00:56:54.235Z,5.15
2023-06-29T00:59:21.610Z,3.92
2023-06-29T01:01:48.799Z,5.50
2023-06-29T01:04:18.728Z,4.85
2023-06-29T01:06:55.374Z,5.78
2023-06-29T01:09:22.584Z,9.63
2023-06-29T01:11:50.982Z,7.88
2023-06-29T01:14:19.204Z,5.63
2023-06-29T01:16:46.832Z,5.10
2023-06-29T01:19:21.142Z,8.82
2023-06-29T01:21:55.874Z,6.22
2023-06-29T01:24:28.939Z,6.00
2023-06-29T01:26:56.418Z,7.03
2023-06-29T01:29:26.127Z,4.68
2023-06-29T01:32:01.032Z,5.20
2023-06-29T01:34:36.045Z,8.10
2023-06-29T01:37:17.732Z,3.88
2023-06-29T01:39:47.151Z,5.80
2023-06-29T01:42:14.569Z,5.47
2023-06-29T01:44:41.872Z,5.78
2023-06-29T01:47:10.142Z,9.32
2023-06-29T01:49:37.626Z,6.97
2023-06-29T01:52:06.074Z,7.72
2023-06-29T01:54:33.489Z,8.23
2023-06-29T01:57:00.641Z,7.22
2023-06-29T01:59:28.052Z,12.60
2023-06-29T02:01:55.229Z,7.35
2023-06-29T02:04:22.436Z,9.25
2023-06-29T02:06:49.603Z,8.02
2023-06-29T02:09:16.982Z,8.40
2023-06-29T02:11:44.197Z,7.30
2023-06-29T02:14:11.321Z,9.30
2023-06-29T02:16:38.447Z,9.70
2023-06-29T02:19:07.895Z,11.23
2023-06-29T02:21:35.057Z,13.40
2023-06-29T02:24:02.190Z,15.00
2023-06-29T02:26:29.341Z,11.35
2023-06-29T02:28:56.484Z,13.93
2023-06-29T02:31:23.715Z,12.45
2023-06-29T02:33:53.481Z,14.57
2023-06-29T02:36:22.312Z,13.88
2023-06-29T02:38:52.444Z,13.35
2023-06-29T02:41:19.600Z,15.80
2023-06-29T02:43:46.732Z,12.00
2023-06-29T02:46:13.893Z,15.55
2023-06-29T02:48:43.537Z,16.83
2023-06-29T02:51:10.722Z,11.57
2023-06-29T02:53:37.862Z,12.70
2023-06-29T02:56:05.158Z,12.20
2023-06-29T02:58:32.313Z,9.35
2023-06-29T03:00:59.467Z,11.82
2023-06-29T03:03:26.692Z,7.90
2023-06-29T03:05:53.851Z,9.27
2023-06-29T03:08:23.269Z,9.35
2023-06-29T03:10:52.983Z,5.47
2023-06-29T03:13:20.136Z,4.65
2023-06-29T03:15:47.396Z,6.68
2023-06-29T03:18:14.676Z,4.75
2023-06-29T03:20:44.088Z,5.32
2023-06-29T03:23:11.239Z,7.15
2023-06-29T03:25:38.352Z,5.13
2023-06-29T03:28:05.621Z,5.57
2023-06-29T03:30:35.308Z,10.57
2023-06-29T03:33:02.694Z,7.15
2023-06-29T03:35:29.922Z,7.93
2023-06-29T03:37:57.129Z,7.93
2023-06-29T03:40:24.233Z,6.57
2023-06-29T03:42:54.220Z,6.07
2023-06-29T03:45:21.396Z,8.85
2023-06-29T03:47:48.597Z,6.65
2023-06-29T03:50:15.753Z,6.53
2023-06-29T03:52:42.898Z,6.90
2023-06-29T03:55:10.281Z,4.35
2023-06-29T03:57:37.485Z,3.90
2023-06-29T04:00:05.161Z,4.03
2023-06-29T04:02:32.334Z,6.93
2023-06-29T04:04:59.545Z,4.47
2023-06-29T04:07:26.964Z,6.10
2023-06-29T04:09:54.187Z,5.70
2023-06-29T04:12:21.325Z,4.90
2023-06-29T04:14:48.484Z,6.60
2023-06-29T04:17:15.604Z,5.03
2023-06-29T04:19:42.752Z,8.15
2023-06-29T04:22:09.901Z,8.40
2023-06-29T04:24:39.520Z,6.78
2023-06-29T04:29:36.310Z,6.38
2023-06-29T04:32:08.048Z,8.55
2023-06-29T04:34:35.185Z,7.38
2023-06-29T04:37:05.781Z,7.38
2023-06-29T04:39:33.177Z,6.32
2023-06-29T04:42:03.167Z,7.57
2023-06-29T04:44:33.801Z,7.82
2023-06-29T04:47:01.679Z,7.57
2023-06-29T04:49:38.516Z,5.88
2023-06-29T04:52:06.342Z,5.63
2023-06-29T04:54:35.945Z,6.47
2023-06-29T04:57:06.019Z,8.02
2023-06-29T04:59:33.198Z,7.25
2023-06-29T05:02:00.458Z,7.53
2023-06-29T05:04:27.686Z,6.47
2023-06-29T05:06:54.905Z,5.13
2023-06-29T05:09:24.505Z,6.05
2023-06-29T05:14:23.371Z,7.28
2023-06-29T05:16:50.548Z,4.90
2023-06-29T05:19:17.737Z,7.13
2023-06-29T05:21:47.340Z,5.22
2023-06-29T05:24:14.540Z,5.00
2023-06-29T05:26:42.066Z,7.13
2023-06-29T05:29:09.182Z,7.13
2023-06-29T05:31:36.399Z,3.83
2023-06-29T05:34:05.772Z,5.10
2023-06-29T05:36:32.909Z,3.70
2023-06-29T05:39:00.175Z,5.10
2023-06-29T05:41:27.279Z,5.10
2023-06-29T05:43:54.468Z,4.78
2023-06-29T05:46:21.676Z,4.25
2023-06-29T05:48:51.289Z,3.88
2023-06-29T05:51:18.466Z,4.15
2023-06-29T05:53:45.786Z,3.55
2023-06-29T05:56:12.922Z,5.93
2023-06-29T05:58:42.623Z,5.88
2023-06-29T06:01:09.872Z,4.65
2023-06-29T06:03:37.058Z,4.20
2023-06-29T06:06:04.281Z,5.45
2023-06-29T06:08:31.412Z,4.80
2023-06-29T06:11:01.122Z,5.40
2023-06-29T06:13:28.257Z,7.88
2023-06-29T06:15:56.078Z,5.95
2023-06-29T06:18:23.242Z,4.97
2023-06-29T06:20:50.454Z,6.85
2023-06-29T06:23:17.690Z,5.00
2023-06-29T06:25:47.441Z,5.60
2023-06-29T06:28:16.829Z,3.15
2023-06-29T06:30:44.221Z,3.30
2023-06-29T06:33:15.433Z,3.15
2023-06-29T06:35:42.680Z,2.80
2023-06-29T06:38:09.847Z,5.05
2023-06-29T06:40:37.013Z,3.90
2023-06-29T06:43:04.963Z,4.25
2023-06-29T06:45:31.675Z,4.38
2023-06-29T06:47:58.505Z,3.30
2023-06-29T06:50:25.264Z,3.03
2023-06-29T06:52:52.002Z,4.57
2023-06-29T06:55:19.297Z,5.03
2023-06-29T06:57:48.802Z,3.63
2023-06-29T07:00:16.031Z,2.55
2023-06-29T07:02:42.914Z,4.88
2023-06-29T07:05:12.295Z,3.75
2023-06-29T07:07:41.676Z,6.75
2023-06-29T07:12:35.207Z,3.58
2023-06-29T07:15:01.985Z,2.13
2023-06-29T07:17:33.434Z,4.05
2023-06-29T07:25:02.125Z,3.92
2023-06-29T07:29:56.663Z,2.15
2023-06-29T07:32:23.441Z,5.07
2023-06-29T07:34:50.250Z,2.70
2023-06-29T07:37:17.024Z,4.13
2023-06-29T07:39:43.803Z,3.53
2023-06-29T07:42:30.053Z,3.05
2023-06-29T07:45:05.077Z,7.35
2023-06-29T07:47:31.892Z,4.07
2023-06-29T07:49:58.718Z,4.88
2023-06-29T07:52:26.358Z,5.05
2023-06-29T07:54:55.583Z,3.70
2023-06-29T07:59:51.962Z,3.05
2023-06-29T08:02:18.758Z,3.88
2023-06-29T08:07:20.222Z,8.15
2023-06-29T08:09:47.054Z,4.63
2023-06-29T08:12:13.777Z,4.68
2023-06-29T08:14:40.528Z,3.97
2023-06-29T08:17:07.434Z,4.57
2023-06-29T08:19:34.298Z,4.00
2023-06-29T08:22:01.080Z,4.68
2023-06-29T08:24:27.811Z,3.58
2023-06-29T08:26:56.750Z,2.88
2023-06-29T08:29:25.704Z,2.85
2023-06-29T08:31:53.067Z,3.67
2023-06-29T08:34:20.299Z,3.45
2023-06-29T08:36:48.300Z,6.10
2023-06-29T08:41:43.079Z,4.45
2023-06-29T08:44:10.135Z,3.60
2023-06-29T08:46:39.867Z,5.45
2023-06-29T08:49:09.168Z,3.40
2023-06-29T08:51:40.029Z,4.80
2023-06-29T08:54:08.160Z,3.38
2023-06-29T08:56:37.542Z,5.85
2023-06-29T09:01:34.911Z,2.22
2023-06-29T09:04:04.354Z,4.93
2023-06-29T09:06:31.139Z,3.42
2023-06-29T09:08:58.388Z,5.03
2023-06-29T09:11:27.601Z,3.30
2023-06-29T09:13:54.884Z,4.82
2023-06-29T09:16:22.420Z,5.57
2023-06-29T09:18:50.485Z,4.82
2023-06-29T09:21:20.018Z,3.95
2023-06-29T09:23:50.561Z,5.25
2023-06-29T09:26:18.723Z,4.13
2023-06-29T09:28:46.594Z,5.70
2023-06-29T09:31:13.810Z,4.78
2023-06-29T09:33:43.070Z,2.78
2023-06-29T09:36:10.086Z,4.15
2023-06-29T09:38:37.759Z,6.47
2023-06-29T09:41:09.348Z,4.03
2023-06-29T09:43:36.319Z,2.85
2023-06-29T09:46:08.391Z,2.75
2023-06-29T09:51:25.072Z,2.97
2023-06-29T09:53:54.356Z,8.70
2023-06-29T09:56:22.002Z,3.30
2023-06-29T09:58:50.827Z,2.85
2023-06-29T10:01:19.624Z,4.18
2023-06-29T10:03:46.417Z,4.38
2023-06-29T10:06:17.606Z,5.03
2023-06-29T10:08:54.888Z,2.83
2023-06-29T10:11:24.554Z,4.65
2023-06-29T10:13:54.450Z,8.15
2023-06-29T10:16:24.322Z,8.90
2023-06-29T10:18:55.325Z,4.78
2023-06-29T10:21:22.284Z,3.95
2023-06-29T10:23:52.063Z,5.22
2023-06-29T10:26:19.407Z,2.97
2023-06-29T10:28:46.344Z,3.72
2023-06-29T10:31:20.321Z,6.13
2023-06-29T10:33:49.015Z,3.05
2023-06-29T10:36:18.322Z,7.93
2023-06-29T10:38:45.350Z,3.65
2023-06-29T10:41:30.497Z,3.33
2023-06-29T10:44:01.900Z,4.40
2023-06-29T10:46:51.155Z,5.22
2023-06-29T10:49:26.008Z,7.63
2023-06-29T10:51:54.923Z,6.03
2023-06-29T10:54:25.830Z,4.50
2023-06-29T10:57:01.714Z,4.03
2023-06-29T10:59:29.475Z,5.13
2023-06-29T11:01:56.631Z,10.75
2023-06-29T11:04:24.815Z,5.00
2023-06-29T11:06:51.998Z,6.18
2023-06-29T11:09:21.519Z,5.65
2023-06-29T11:11:50.563Z,4.55
2023-06-29T11:14:20.376Z,6.40
2023-06-29T11:16:48.449Z,12.00
2023-06-29T11:19:15.642Z,5.95
2023-06-29T11:21:42.934Z,5.60
2023-06-29T11:24:10.943Z,6.28
2023-06-29T11:26:37.806Z,6.10
2023-06-29T11:29:07.605Z,7.18
2023-06-29T11:31:34.374Z,6.25
2023-06-29T11:34:01.521Z,6.32
2023-06-29T11:36:34.422Z,7.70
2023-06-29T11:39:11.827Z,9.05
2023-06-29T11:41:40.785Z,4.70
2023-06-29T11:44:10.404Z,7.47
2023-06-29T11:46:40.818Z,7.60
2023-06-29T11:49:07.697Z,4.93
2023-06-29T11:51:39.407Z,5.20
2023-06-29T11:54:08.464Z,5.03
2023-06-29T11:56:42.579Z,6.53
2023-06-29T11:59:18.675Z,8.00
2023-06-29T12:01:45.721Z,7.53
2023-06-29T12:04:15.993Z,6.13
2023-06-29T12:06:52.054Z,6.07
2023-06-29T12:09:19.433Z,7.20
2023-06-29T12:11:46.352Z,6.50
2023-06-29T12:14:13.288Z,6.55
2023-06-29T12:19:13.892Z,7.22
2023-06-29T12:21:42.025Z,6.38
2023-06-29T12:24:17.688Z,6.05
2023-06-29T12:26:44.440Z,8.15
2023-06-29T12:29:11.252Z,6.38
2023-06-29T12:31:38.021Z,8.85
2023-06-29T12:34:04.804Z,7.97
2023-06-29T12:36:34.279Z,4.60
2023-06-29T12:39:01.091Z,5.43
2023-06-29T12:41:27.807Z,5.78
2023-06-29T12:43:54.571Z,5.80
2023-06-29T12:46:24.288Z,4.93
2023-06-29T12:48:53.232Z,5.28
2023-06-29T12:51:19.954Z,10.10
2023-06-29T12:53:46.703Z,6.25
2023-06-29T12:56:13.437Z,5.80
2023-06-29T12:58:40.164Z,5.40
2023-06-29T13:01:07.410Z,6.20
2023-06-29T13:03:34.385Z,6.32
2023-06-29T13:06:01.256Z,6.28
2023-06-29T13:08:28.080Z,5.95
2023-06-29T13:10:55.661Z,5.10
2023-06-29T13:13:22.381Z,6.35
2023-06-29T13:15:49.266Z,8.93
2023-06-29T13:18:16.415Z,5.80
2023-06-29T13:20:43.340Z,4.00
2023-06-29T13:23:10.053Z,5.40
2023-06-29T13:25:36.763Z,6.10
2023-06-29T13:28:03.590Z,8.75
2023-06-29T13:30:33.451Z,4.80
2023-06-29T13:33:00.331Z,5.10
2023-06-29T13:35:28.254Z,7.15
2023-06-29T13:37:55.069Z,4.97
2023-06-29T13:40:21.814Z,5.45
2023-06-29T13:42:48.691Z,5.00
2023-06-29T13:45:20.537Z,8.32
2023-06-29T13:47:47.446Z,4.85
2023-06-29T13:50:15.222Z,5.20
2023-06-29T13:52:43.443Z,5.88
2023-06-29T13:55:12.653Z,5.05
2023-06-29T14:00:06.857Z,6.32
2023-06-29T14:02:33.619Z,5.50
2023-06-29T14:05:00.387Z,7.82
2023-06-29T14:07:27.268Z,7.82
2023-06-29T14:09:56.297Z,7.85
2023-06-29T14:12:23.051Z,7.75
2023-06-29T14:14:50.398Z,7.10
2023-06-29T14:17:22.168Z,7.18
2023-06-29T14:19:54.305Z,7.28
2023-06-29T14:22:21.507Z,5.90
2023-06-29T14:24:48.245Z,6.00
2023-06-29T14:27:17.880Z,5.90
2023-06-29T14:29:47.146Z,6.70
2023-06-29T14:34:48.951Z,13.77
2023-06-29T14:37:18.329Z,6.45
2023-06-29T14:42:13.896Z,7.93
2023-06-29T14:44:42.862Z,7.45
2023-06-29T14:47:11.300Z,9.60
2023-06-29T14:49:38.070Z,8.52
2023-06-29T14:52:07.599Z,12.98
2023-06-29T14:54:34.446Z,12.70
2023-06-29T14:57:01.459Z,11.32
2023-06-29T14:59:28.180Z,12.48
2023-06-29T15:01:57.263Z,8.98
2023-06-29T15:04:26.309Z,12.15
2023-06-29T15:06:54.074Z,13.18
2023-06-29T15:09:21.072Z,13.25
2023-06-29T15:11:50.945Z,10.77
2023-06-29T15:14:17.671Z,12.55
2023-06-29T15:16:44.508Z,11.10
2023-06-29T15:19:11.340Z,12.82
2023-06-29T15:21:40.430Z,12.70
2023-06-29T15:24:08.390Z,14.50
2023-06-29T15:26:37.421Z,16.58
2023-06-29T15:29:07.436Z,15.77
2023-06-29T15:31:34.384Z,17.58
2023-06-29T15:34:01.201Z,14.98
2023-06-29T15:36:27.938Z,13.20
2023-06-29T15:38:54.699Z,18.27
2023-06-29T15:41:23.998Z,13.98
2023-06-29T15:44:01.965Z,14.68
2023-06-29T15:46:29.266Z,18.38
2023-06-29T15:49:00.781Z,15.77
2023-06-29T15:51:27.616Z,13.23
2023-06-29T15:53:55.200Z,19.13
2023-06-29T15:56:24.431Z,20.13
2023-06-29T15:58:51.322Z,18.10
2023-06-29T16:01:18.132Z,18.60
2023-06-29T16:03:44.958Z,14.85
2023-06-29T16:06:14.059Z,21.05
2023-06-29T16:08:40.822Z,16.55
2023-06-29T16:11:07.597Z,18.15
2023-06-29T16:13:34.362Z,17.95
2023-06-29T16:16:01.160Z,18.08
2023-06-29T16:18:30.364Z,15.18
2023-06-29T16:20:59.306Z,16.17
2023-06-29T16:23:26.015Z,20.17
2023-06-29T16:25:52.754Z,19.20
2023-06-29T16:28:19.560Z,16.67
2023-06-29T16:30:46.274Z,21.20
2023-06-29T16:33:15.530Z,16.52
2023-06-29T16:38:11.571Z,20.15
2023-06-29T16:40:40.779Z,18.90
2023-06-29T16:43:09.920Z,18.83
2023-06-29T16:45:38.816Z,19.85
2023-06-29T16:48:05.948Z,20.63
2023-06-29T16:50:33.011Z,21.15
2023-06-29T16:52:59.800Z,20.17
2023-06-29T16:55:28.945Z,21.02
2023-06-29T16:58:00.629Z,20.80
2023-06-29T17:00:27.323Z,18.48
2023-06-29T17:02:56.595Z,22.02
2023-06-29T17:05:23.493Z,16.80
2023-06-29T17:07:54.055Z,19.42
2023-06-29T17:10:24.619Z,22.30
2023-06-29T17:12:52.548Z,18.92
2023-06-29T17:15:19.969Z,19.63
2023-06-29T17:17:47.008Z,19.10
2023-06-29T17:20:14.299Z,17.73
2023-06-29T17:22:43.303Z,20.27
2023-06-29T17:25:10.209Z,16.92
2023-06-29T17:27:36.906Z,18.73
2023-06-29T17:30:03.875Z,21.65
2023-06-29T17:32:30.762Z,17.70
2023-06-29T17:34:58.572Z,17.27
2023-06-29T17:37:25.418Z,21.05
2023-06-29T17:39:54.306Z,19.27
2023-06-29T17:42:24.154Z,16.70
2023-06-29T17:44:51.040Z,17.77
2023-06-29T17:47:20.046Z,16.75
2023-06-29T17:49:46.833Z,16.27
2023-06-29T17:52:13.573Z,18.20
2023-06-29T17:54:42.671Z,18.40
2023-06-29T17:57:09.499Z,18.08
2023-06-29T17:59:36.496Z,19.10
2023-06-29T18:02:03.368Z,16.27
2023-06-29T18:04:32.254Z,18.15
2023-06-29T18:07:00.541Z,21.70
2023-06-29T18:09:27.617Z,16.17
2023-06-29T18:11:56.706Z,15.88
2023-06-29T18:14:23.485Z,17.45
2023-06-29T18:16:52.682Z,14.52
2023-06-29T18:21:46.219Z,20.13
2023-06-29T18:24:15.234Z,22.73
2023-06-29T18:26:42.011Z,15.93
2023-06-29T18:29:11.084Z,21.27
2023-06-29T18:31:38.700Z,18.52
2023-06-29T18:34:06.666Z,20.00
2023-06-29T18:36:35.667Z,16.80
2023-06-29T18:39:02.534Z,18.33
2023-06-29T18:41:31.603Z,19.80
2023-06-29T18:43:59.894Z,15.85
2023-06-29T18:46:28.879Z,19.35
2023-06-29T18:48:58.387Z,19.35
2023-06-29T18:51:26.003Z,20.75
2023-06-29T18:53:53.597Z,18.75
2023-06-29T18:56:20.960Z,18.73
2023-06-29T18:58:48.748Z,17.33
2023-06-29T19:01:16.122Z,16.85
2023-06-29T19:03:45.610Z,18.02
2023-06-29T19:06:12.788Z,17.33
2023-06-29T19:08:39.564Z,21.60
2023-06-29T19:11:06.344Z,17.00
2023-06-29T19:13:35.288Z,17.42
2023-06-29T19:16:04.712Z,16.90
2023-06-29T19:18:31.479Z,17.75
2023-06-29T19:21:02.423Z,21.33
2023-06-29T19:23:31.401Z,18.27
2023-06-29T19:25:58.173Z,16.33
2023-06-29T19:28:24.936Z,15.93
2023-06-29T19:30:51.651Z,17.88
2023-06-29T19:33:21.082Z,18.30
2023-06-29T19:35:50.303Z,15.98
2023-06-29T19:38:17.074Z,16.45
2023-06-29T19:40:43.852Z,14.45
2023-06-29T19:43:13.068Z,16.20
2023-06-29T19:45:39.845Z,15.50
2023-06-29T19:48:06.767Z,13.95
2023-06-29T19:50:33.825Z,17.75
2023-06-29T19:53:00.731Z,15.40
2023-06-29T19:55:30.162Z,19.55
2023-06-29T19:57:56.906Z,19.48
2023-06-29T20:00:24.157Z,17.08
2023-06-29T20:02:50.959Z,18.95
2023-06-29T20:05:20.411Z,17.40
2023-06-29T20:07:47.219Z,23.88
2023-06-29T20:10:14.025Z,18.13
2023-06-29T20:12:40.899Z,20.27
2023-06-29T20:15:10.074Z,17.60
2023-06-29T20:17:37.168Z,18.52
2023-06-29T20:20:04.772Z,18.63
2023-06-29T20:22:34.053Z,16.63
2023-06-29T20:25:03.985Z,18.83
2023-06-29T20:27:30.725Z,16.30
2023-06-29T20:29:59.773Z,16.60
2023-06-29T20:32:29.453Z,16.77
2023-06-29T20:34:56.257Z,16.77
2023-06-29T20:37:22.970Z,19.85
2023-06-29T20:39:49.798Z,20.42
2023-06-29T20:42:16.547Z,18.92
2023-06-29T20:44:43.815Z,20.42
2023-06-29T20:47:11.553Z,20.98
2023-06-29T20:49:38.296Z,20.15
2023-06-29T20:52:07.958Z,20.92
2023-06-29T20:54:34.761Z,22.55
2023-06-29T20:57:03.457Z,21.73
2023-06-29T20:59:32.069Z,21.02
2023-06-29T21:02:01.302Z,19.08
2023-06-29T21:04:32.927Z,20.20
2023-06-29T21:07:02.441Z,22.27
2023-06-29T21:11:56.048Z,19.17
2023-06-29T21:14:23.028Z,19.00
2023-06-29T21:16:49.885Z,20.98
2023-06-29T21:19:16.982Z,19.77
2023-06-29T21:21:44.024Z,24.48
2023-06-29T21:24:11.209Z,21.00
2023-06-29T21:26:38.392Z,26.10
2023-06-29T21:29:22.363Z,25.15
2023-06-29T21:31:54.387Z,23.17
2023-06-29T21:34:21.401Z,29.98
2023-06-29T21:36:48.524Z,27.50
2023-06-29T21:39:15.383Z,25.17
2023-06-29T21:41:42.189Z,25.52
2023-06-29T21:44:11.142Z,33.63
2023-06-29T21:46:37.951Z,29.05
2023-06-29T21:49:05.061Z,31.77
2023-06-29T21:51:32.000Z,30.90
2023-06-29T21:53:58.718Z,28.98
2023-06-29T21:56:28.142Z,30.13
2023-06-29T22:01:21.673Z,27.65
2023-06-29T22:03:48.557Z,30.92
2023-06-29T22:06:15.349Z,30.05
2023-06-29T22:08:42.089Z,29.02
2023-06-29T22:11:11.404Z,33.17
2023-06-29T22:13:43.365Z,30.92
2023-06-29T22:16:12.657Z,32.28
2023-06-29T22:18:39.471Z,30.67
2023-06-29T22:21:06.168Z,30.50
2023-06-29T22:23:35.059Z,28.77
2023-06-29T22:26:01.758Z,30.45
2023-06-29T22:28:31.036Z,29.75
2023-06-29T22:31:00.287Z,31.98
2023-06-29T22:33:29.579Z,32.63
2023-06-29T22:35:56.324Z,28.45
2023-06-29T22:38:23.090Z,28.30
2023-06-29T22:40:50.763Z,26.17
2023-06-29T22:43:17.522Z,29.63
2023-06-29T22:45:45.030Z,28.90
2023-06-29T22:48:11.952Z,27.25
2023-06-29T22:50:43.190Z,28.63
2023-06-29T22:53:10.072Z,28.30
2023-06-29T22:55:36.919Z,23.02
2023-06-29T22:58:08.148Z,27.73
2023-06-29T23:00:34.882Z,24.40
2023-06-29T23:03:01.701Z,26.42
2023-06-29T23:05:28.489Z,23.83
2023-06-29T23:07:55.264Z,25.15
2023-06-29T23:10:22.002Z,21.23
2023-06-29T23:12:51.192Z,23.15
2023-06-29T23:15:18.137Z,21.08
2023-06-29T23:17:45.383Z,23.52
2023-06-29T23:20:13.930Z,25.77
2023-06-29T23:22:42.350Z,27.52
2023-06-29T23:25:10.228Z,22.30
2023-06-29T23:27:45.256Z,21.73
2023-06-29T23:30:13.588Z,25.35
2023-06-29T23:32:41.523Z,22.45
2023-06-29T23:35:09.608Z,29.42
2023-06-29T23:37:39.530Z,22.15
2023-06-29T23:40:12.148Z,21.95
2023-06-29T23:42:40.172Z,23.25
2023-06-29T23:45:11.969Z,24.45
2023-06-29T23:47:39.903Z,26.67
2023-06-29T23:50:11.787Z,27.88
2023-06-29T23:52:39.765Z,27.08
2023-06-29T23:55:12.394Z,27.38
2023-06-29T23:57:42.451Z,27.67
